Nearby METAR Reports

 

KTTN - Trenton, New Jersey, USA
Distance from station: WNW 11mi, 17km
Updated: Wed, 28-Sep-2022 7:53pm EDT
Mostly cloudy
Mostly cloudy
 Wind from NNW
Wind: NNW 3 mph , 6 km/h
Temperature: 63°F , 17°C
Dew Point: 52°F , 11°C
Humidity: 68%
Barometer: 30.19 inHg , 1022.4 hPa
Clouds: Mostly cloudy
Visibility: 10 miles , 16 km
Cloud details: Few Clouds 5500 ft
Mostly cloudy 8500 ft
2022/09/28 23:53 KTTN 282353Z 34003KT 10SM FEW055 BKN085 17/11 A3019 RMK AO2 SLP217 T01720106 10211 20172 53018
KWRI - Wrightst/Mcguire, New Jersey, USA
Distance from station: SSE 14mi, 22km
Updated: Wed, 28-Sep-2022 7:55pm EDT
Partly cloudy
Partly cloudy
 Wind from W
Wind: W 3 mph , 6 km/h
Temperature: 61°F , 16°C
Dew Point: 48°F , 9°C
Humidity: 63%
Barometer: 30.19 inHg , 1022.4 hPa
Clouds: Partly cloudy
Visibility: 10 miles , 16 km
Cloud details: Partly cloudy 8000 ft
2022/09/28 23:55 KWRI 282355Z 26003KT 10SM SCT080 16/09 A3019 RMK AO2A SLP223 T01610090 10223 20160 52019 $
 
KNEL - Lakehurst Nas, New Jersey, USA
Distance from station: SE 21mi, 34km
Updated: Wed, 28-Sep-2022 8:00pm EDT
Few Clouds
Few Clouds
 Wind from calm
Wind: Calm
Temperature: 57°F , 14°C
Dew Point: 52°F , 11°C
Humidity: 82%
Barometer: 30.18 inHg , 1022 hPa
Clouds: Few Clouds
Visibility: 10 miles , 16 km
Cloud details: Few Clouds 8000 ft
2022/09/29 00:00 KNEL 290000Z AUTO 00000KT 10SM FEW080 14/11 A3018 RMK AO2 SLP218 T01440106 10222 20144 53018 $
KPNE - Philadelphia/Ne, Pennsylvania, USA
Distance from station: WSW 22mi, 35km
Updated: Wed, 28-Sep-2022 7:54pm EDT
Clear
Clear
 Wind from WNW
Wind: WNW 6 mph , 9 km/h
Temperature: 63°F , 17°C
Dew Point: 48°F , 9°C
Humidity: 59%
Barometer: 30.21 inHg , 1023 hPa
Clouds: Clear
Visibility: 10 miles , 16 km
2022/09/28 23:54 KPNE 282354Z 30005KT 10SM CLR 17/09 A3021 RMK AO2 SLP228 T01720089 10217 20172 53015
 
KVAY - Mount Holly, New Jersey, USA
Distance from station: SSW 22mi, 35km
Updated: Wed, 28-Sep-2022 7:54pm EDT
Mostly cloudy
Mostly cloudy
 Wind from calm
Wind: Calm
Temperature: 61°F , 16°C
Dew Point: 50°F , 10°C
Humidity: 68%
Barometer: 30.20 inHg , 1022.7 hPa
Clouds: Mostly cloudy
Visibility: 10 miles , 16 km
Cloud details: Mostly cloudy 6000 ft
2022/09/28 23:54 KVAY 282354Z AUTO 00000KT 10SM BKN060 16/10 A3020 RMK AO2 SLP225 T01560100 10222 20150 53018
KMJX - Toms River, New Jersey, USA
Distance from station: SE 26mi, 42km
Updated: Thu, 15-Sep-2022 11:56am EDT
NOT Current
Clear
Clear
 Wind from NNW
Wind: NNW 10 mph , 17 km/h, Gust: 18 mph , 30 km/h
Temperature: 70°F , 21°C
Dew Point: 46°F , 8°C
Humidity: 43%
Barometer: 30.17 inHg , 1021.7 hPa
Clouds: Clear
Visibility: 10 miles , 16 km
2022/09/15 15:56 KMJX 151556Z AUTO 33009G16KT 10SM CLR 21/08 A3017 RMK AO2 SLP219 T02110083 TSNO
 
KDYL - Doylestown, Pennsylvania, USA
Distance from station: WNW 27mi, 43km
Updated: Wed, 28-Sep-2022 7:54pm EDT
Overcast
Overcast
 Wind from NNW
Wind: NNW 6 mph , 9 km/h
Temperature: 63°F , 17°C
Dew Point: 48°F , 9°C
Humidity: 59%
Barometer: 30.20 inHg , 1022.7 hPa
Clouds: Overcast
Visibility: 10 miles , 16 km
Cloud details: Few Clouds 5000 ft
Overcast 8500 ft
2022/09/28 23:54 KDYL 282354Z AUTO 33005KT 10SM FEW050 OVC085 17/09 A3020 RMK AO2 SLP227 T01720094 10211 20172 53020
KBLM - Belmar/Farmdale, New Jersey, USA
Distance from station: E 28mi, 45km
Updated: Wed, 28-Sep-2022 7:56pm EDT
Few Clouds
Few Clouds
 Wind from calm
Wind: Calm
Temperature: 63°F , 17°C
Dew Point: 54°F , 12°C
Humidity: 73%
Barometer: 30.20 inHg , 1022.7 hPa
Clouds: Few Clouds
Visibility: 10 miles , 16 km
Cloud details: Few Clouds 7500 ft
2022/09/28 23:56 KBLM 282356Z AUTO 00000KT 10SM FEW075 17/12 A3020 RMK AO2 SLP226 T01670117 10222 20156 53018
 
KSMQ - Somerville, New Jersey, USA
Distance from station: N 28mi, 45km
Updated: Wed, 28-Sep-2022 7:53pm EDT
Overcast
Overcast
 Wind from calm
Wind: Calm
Temperature: 61°F , 16°C
Dew Point: 54°F , 12°C
Humidity: 77%
Barometer: 30.18 inHg , 1022 hPa
Clouds: Overcast
Visibility: 10 miles , 16 km
Cloud details: Overcast 8000 ft
2022/09/28 23:53 KSMQ 282353Z AUTO 00000KT 10SM OVC080 16/12 A3018 RMK AO2 SLP222 T01560122 10222 20144 53024
KLOM - Philly Wings F, Pennsylvania, USA
Distance from station: W 34mi, 54km
Updated: Wed, 28-Sep-2022 8:15pm EDT
Partly cloudy
Partly cloudy
 Wind from calm
Wind: Calm
Temperature: 61°F , 16°C
Dew Point: 50°F , 10°C
Humidity: 68%
Barometer: 30.22 inHg , 1023.4 hPa
Clouds: Partly cloudy
Visibility: 10 miles , 16 km
Cloud details: Partly cloudy 8500 ft
2022/09/29 00:15 KLOM 290015Z AUTO 00000KT 10SM SCT085 16/10 A3022 RMK AO2 T01570100
 
KLDJ - Linden, New Jersey, USA
Distance from station: NE 35mi, 56km
Updated: Wed, 28-Sep-2022 8:15pm EDT
Overcast
Overcast
 Wind from NNW
Wind: NNW 5 mph , 7 km/h
Temperature: 66°F , 19°C
Dew Point: 48°F , 9°C
Humidity: 52%
Barometer: 30.19 inHg , 1022.4 hPa
Clouds: Overcast
Visibility: 10 miles , 16 km
Cloud details: Overcast 8500 ft
2022/09/29 00:15 KLDJ 290015Z AUTO 34004KT 10SM OVC085 19/09 A3019 RMK AO2 T01870090
KCKZ - Perkasie, Pennsylvania, USA
Distance from station: WNW 36mi, 58km
Updated: Wed, 28-Sep-2022 8:15pm EDT
Overcast
Overcast
 Wind from NNW
Wind: NNW 6 mph , 9 km/h
Temperature: 59°F , 15°C
Dew Point: 50°F , 10°C
Humidity: 72%
Barometer: 30.23 inHg , 1023.7 hPa
Clouds: Overcast
Visibility: 10 miles , 16 km
Cloud details: Overcast 8500 ft
2022/09/29 00:15 KCKZ 290015Z AUTO 33005KT 10SM OVC085 15/10 A3023 RMK AO2
 
KPHL - Philadelphia, Pennsylvania, USA
Distance from station: SW 40mi, 64km
Updated: Wed, 28-Sep-2022 7:54pm EDT
Partly cloudy
Partly cloudy
 Wind from NW
Wind: NW 7 mph , 11 km/h
Temperature: 68°F , 20°C
Dew Point: 48°F , 9°C
Humidity: 49%
Barometer: 30.20 inHg , 1022.7 hPa
Clouds: Partly cloudy
Visibility: 10 miles , 16 km
Cloud details: Few Clouds 6000 ft
Partly cloudy 25000 ft
2022/09/28 23:54 KPHL 282354Z 32006KT 10SM FEW060 SCT250 20/09 A3020 RMK AO2 SLP226 T02000094 10228 20200 53014
KEWR - Newark, New Jersey, USA
Distance from station: NE 41mi, 66km
Updated: Wed, 28-Sep-2022 7:51pm EDT
Mostly cloudy
Mostly cloudy
 Wind from NW
Wind: NW 14 mph , 22 km/h, Gust: 22 mph , 35 km/h
Temperature: 66°F , 19°C
Dew Point: 48°F , 9°C
Humidity: 52%
Barometer: 30.18 inHg , 1022 hPa
Clouds: Mostly cloudy
Visibility: 10 miles , 16 km
Cloud details: Few Clouds 5000 ft
Mostly cloudy 8000 ft
Mostly cloudy 25000 ft
2022/09/28 23:51 KEWR 282351Z 31012G19KT 10SM FEW050 BKN080 BKN250 19/09 A3018 RMK AO2 SLP219 T01890094 10217 20189 53022
 
KMMU - Morristown Muni, New Jersey, USA
Distance from station: NNE 41mi, 66km
Updated: Wed, 28-Sep-2022 7:45pm EDT
Overcast
Overcast
 Wind from N
Wind: N 8 mph , 13 km/h
Temperature: 64°F , 18°C
Dew Point: 54°F , 12°C
Humidity: 68%
Barometer: 30.20 inHg , 1022.7 hPa
Clouds: Overcast
Visibility: 10 miles , 16 km
Cloud details: Overcast 7500 ft
2022/09/28 23:45 KMMU 282345Z 35007KT 10SM OVC075 18/12 A3020
KUKT - Quakertown Arp, Pennsylvania, USA
Distance from station: WNW 42mi, 68km
Updated: Wed, 28-Sep-2022 8:35pm EDT
Overcast
Overcast
 Wind from NNW
Wind: NNW 6 mph , 9 km/h
Temperature: 61°F , 16°C
Dew Point: 52°F , 11°C
Humidity: 72%
Barometer: 30.24 inHg , 1024 hPa
Clouds: Overcast
Visibility: 10 miles , 16 km
Cloud details: Overcast 8500 ft
2022/09/29 00:35 KUKT 290035Z AUTO 34005KT 10SM OVC085 16/11 A3024 RMK A01
 
KJRB - Manhattan/Dwntwn, New York, USA
Distance from station: NE 47mi, 75km
Updated: Wed, 28-Sep-2022 7:56pm EDT
Overcast
Overcast
 Wind from calm
Wind: Calm
Barometer: 30.19 inHg , 1022.4 hPa
Clouds: Overcast
Visibility: 10 miles , 16 km
Cloud details: Few Clouds 5000 ft
Overcast 8000 ft
2022/09/28 23:56 KJRB 282356Z AUTO 00000KT 10SM FEW050 OVC080 A3019 RMK AO2 SLPNO 6//// 53020 FZRANO $
KPTW - Pottstown, Pennsylvania, USA
Distance from station: W 48mi, 77km
Updated: Wed, 28-Sep-2022 7:54pm EDT
Overcast
Overcast
 Wind from NNW
Wind: NNW 7 mph , 11 km/h
Temperature: 61°F , 16°C
Dew Point: 48°F , 9°C
Humidity: 63%
Barometer: 30.23 inHg , 1023.7 hPa
Clouds: Overcast
Visibility: 10 miles , 16 km
Cloud details: Overcast 9000 ft
2022/09/28 23:54 KPTW 282354Z AUTO 34006KT 10SM OVC090 16/09 A3023 RMK AO2 SLP236 T01610089 10200 20150 53021
 
KCDW - Caldwell, New Jersey, USA
Distance from station: NNE 50mi, 80km
Updated: Wed, 28-Sep-2022 7:53pm EDT
Overcast
Overcast
 Wind from varies
Wind: varies 3 mph , 6 km/h
Temperature: 64°F , 18°C
Dew Point: 48°F , 9°C
Humidity: 56%
Barometer: 30.20 inHg , 1022.7 hPa
Clouds: Overcast
Visibility: 10 miles , 16 km
Cloud details: Few Clouds 6500 ft
Overcast 8500 ft
2022/09/28 23:53 KCDW 282353Z VRB03KT 10SM FEW065 OVC085 18/09 A3020 RMK AO2 SLP231 T01780094 10217 20178 53025